Portada
METAR-TAF:

METAR-TAF

Aeroports :

Saint-Étienne, França

latitud: 45-32N, longitud: 004-18E, altitud: 404 m

Observació

L'informe es va fer fa 30 minuts, a les 07:00 UTC
Vent 4 kt del Nord/Nord-Oest, variant entre Oest i Nord/Nord-Est
Temperatura 16°C
Humitat 63%
Pressió 1021 hPa
Visibilitat 10 km o més
sense núvols per sota de 1500 mi sense presència de cumulonimbus.

METAR: LFMH 250700Z AUTO 33004KT 260V020 CAVOK 16/09 Q1021 NOSIG

Hora: 09:30 (07:30 UTC)

Pronòstic

L'informe es va fer fa 5 hores i 30 minuts, a les 02:00 UTC
Pronòstic vàlid del 25 a les 03 UTC al 26 a les 03 UTC
Vent 2 kt amb direcció variable
Visibilitat 10 km o més
sense núvols per sota de 1500 mi sense presència de cumulonimbus.
Evolucionant progressivament
l' 25 a les 06 UTC al 25 a les 08 UTC
Vent 10 kt del Nord

TAF: LFMH 250200Z 2503/2603 VRB02KT CAVOK BECMG 2506/2508 36010KT

Observacions i pronòstics meteorològics de més de 4000 aeroports (METAR i TAF).

Les estacions disponibles són els punts grocs i vermells al mapa.

Posi el ratolí al punt desitjat per veure el nom de l'estació.

Feu clic per veure les observacions i els pronòstics meteorològics.

Per canviar el mapa: feu clic els botons verds amb una creu de color negre per apropar; al botó verd amb un guió per allunyar la imatge; o en les fletxes verdes per a mapes adjacents.


METAR-TAF: